createdAt,value
2023-02-09T00:00:53.764Z,102842.31
2023-02-09T00:02:55.798Z,102849.66
2023-02-09T00:04:57.732Z,102850.53
2023-02-09T00:07:00.722Z,102847.41
2023-02-09T00:09:03.680Z,102845.31
2023-02-09T00:11:09.665Z,102839.16
2023-02-09T00:13:15.234Z,102835.28
2023-02-09T00:15:17.325Z,102825.50
2023-02-09T00:17:19.380Z,102831.66
2023-02-09T00:19:22.259Z,102828.34
2023-02-09T00:21:24.201Z,102823.72
2023-02-09T00:23:28.233Z,102818.81
2023-02-09T00:25:30.158Z,102826.47
2023-02-09T00:27:35.617Z,102827.47
2023-02-09T00:29:37.850Z,102819.91
2023-02-09T00:31:40.112Z,102816.84
2023-02-09T00:33:42.115Z,102818.19
2023-02-09T00:35:44.801Z,102813.09
2023-02-09T00:37:46.797Z,102821.19
2023-02-09T00:39:48.703Z,102809.19
2023-02-09T00:41:53.722Z,102808.09
2023-02-09T00:43:55.659Z,102810.09
2023-02-09T00:45:57.816Z,102799.97
2023-02-09T00:48:00.595Z,102801.53
2023-02-09T00:50:06.795Z,102810.53
2023-02-09T00:52:10.049Z,102807.75
2023-02-09T00:54:13.172Z,102791.63
2023-02-09T00:56:15.159Z,102783.84
2023-02-09T00:58:17.442Z,102793.09
2023-02-09T01:00:20.747Z,102784.84
2023-02-09T01:02:22.830Z,102798.88
2023-02-09T01:04:24.880Z,102795.06
2023-02-09T01:06:26.947Z,102787.88
2023-02-09T01:08:28.889Z,102781.09
2023-02-09T01:10:30.917Z,102797.63
2023-02-09T01:12:33.093Z,102785.41
2023-02-09T01:14:35.076Z,102794.31
2023-02-09T01:16:37.100Z,102797.97
2023-02-09T01:18:39.596Z,102788.53
2023-02-09T01:20:42.772Z,102799.53
2023-02-09T01:22:44.841Z,102797.97
2023-02-09T01:24:47.307Z,102796.41
2023-02-09T01:26:49.392Z,102789.44
2023-02-09T01:28:52.762Z,102791.31
2023-02-09T01:30:54.851Z,102772.31
2023-02-09T01:32:56.967Z,102762.88
2023-02-09T01:34:59.000Z,102759.56
2023-02-09T01:37:01.002Z,102760.44
2023-02-09T01:39:04.096Z,102762.09
2023-02-09T01:41:06.055Z,102771.75
2023-02-09T01:43:11.468Z,102775.41
2023-02-09T01:45:20.420Z,102776.31
2023-02-09T01:47:22.462Z,102784.09
2023-02-09T01:49:27.013Z,102775.00
2023-02-09T01:51:30.667Z,102769.41
2023-02-09T01:53:33.203Z,102766.22
2023-02-09T01:55:40.546Z,102766.22
2023-02-09T01:57:49.287Z,102758.56
2023-02-09T01:59:56.728Z,102764.97
2023-02-09T02:01:58.711Z,102769.41
2023-02-09T02:04:01.041Z,102761.75
2023-02-09T02:06:09.364Z,102769.31
2023-02-09T02:08:19.461Z,102770.56
2023-02-09T02:10:22.197Z,102760.06
2023-02-09T02:12:25.070Z,102755.44
2023-02-09T02:14:30.164Z,102759.31
2023-02-09T02:16:47.513Z,102765.63
2023-02-09T02:18:52.960Z,102765.94
2023-02-09T02:21:01.188Z,102758.97
2023-02-09T02:23:09.503Z,102768.47
2023-02-09T02:25:17.601Z,102774.28
2023-02-09T02:27:30.407Z,102772.16
2023-02-09T02:29:43.591Z,102768.63
2023-02-09T02:31:58.272Z,102783.03
2023-02-09T02:34:08.372Z,102778.41
2023-02-09T02:36:13.985Z,102776.50
2023-02-09T02:38:20.634Z,102781.41
2023-02-09T02:40:30.513Z,102770.28
2023-02-09T02:42:45.495Z,102770.16
2023-02-09T02:44:59.248Z,102766.41
2023-02-09T02:47:07.243Z,102757.41
2023-02-09T02:49:24.905Z,102751.41
2023-02-09T02:51:33.354Z,102738.44
2023-02-09T02:53:37.822Z,102744.66
2023-02-09T02:55:41.616Z,102749.09
2023-02-09T02:57:47.488Z,102746.31
2023-02-09T02:59:57.617Z,102756.44
2023-02-09T03:02:06.500Z,102755.22
2023-02-09T03:04:10.161Z,102759.44
2023-02-09T03:06:13.982Z,102756.31
2023-02-09T03:08:16.307Z,102758.09
2023-02-09T03:10:24.605Z,102751.31
2023-02-09T03:12:29.919Z,102754.34
2023-02-09T03:14:36.320Z,102753.31
2023-02-09T03:16:40.115Z,102755.75
2023-02-09T03:18:46.709Z,102760.97
2023-02-09T03:20:52.281Z,102754.97
2023-02-09T03:23:00.455Z,102760.34
2023-02-09T03:25:12.808Z,102751.88
2023-02-09T03:27:22.087Z,102759.31
2023-02-09T03:29:27.840Z,102748.22
2023-02-09T03:31:31.934Z,102752.31
2023-02-09T03:33:37.258Z,102747.78
2023-02-09T03:35:41.569Z,102751.88
2023-02-09T03:37:43.821Z,102761.44
2023-02-09T03:39:45.884Z,102757.41
2023-02-09T03:41:47.874Z,102755.44
2023-02-09T03:43:53.031Z,102757.22
2023-02-09T03:45:54.926Z,102757.09
2023-02-09T03:47:57.031Z,102756.13
2023-02-09T03:49:59.523Z,102758.31
2023-02-09T03:52:02.484Z,102754.44
2023-02-09T03:54:04.517Z,102756.22
2023-02-09T03:56:09.422Z,102755.53
2023-02-09T03:58:11.454Z,102749.56
2023-02-09T04:00:14.563Z,102754.34
2023-02-09T04:02:16.739Z,102750.09
2023-02-09T04:04:19.020Z,102745.22
2023-02-09T04:06:21.045Z,102749.44
2023-02-09T04:08:22.971Z,102754.84
2023-02-09T04:10:24.859Z,102752.19
2023-02-09T04:12:26.868Z,102752.09
2023-02-09T04:14:28.805Z,102758.06
2023-02-09T04:16:31.025Z,102758.50
2023-02-09T04:18:33.123Z,102763.63
2023-02-09T04:20:35.047Z,102762.72
2023-02-09T04:22:37.057Z,102774.97
2023-02-09T04:24:39.102Z,102774.03
2023-02-09T04:26:41.065Z,102768.97
2023-02-09T04:28:43.511Z,102774.72
2023-02-09T04:30:45.750Z,102774.59
2023-02-09T04:32:47.926Z,102786.94
2023-02-09T04:34:49.934Z,102792.38
2023-02-09T04:36:51.791Z,102795.72
2023-02-09T04:38:53.742Z,102797.59
2023-02-09T04:40:56.490Z,102801.16
2023-02-09T04:42:58.404Z,102798.84
2023-02-09T04:45:00.481Z,102803.59
2023-02-09T04:47:02.752Z,102801.50
2023-02-09T04:49:04.708Z,102804.06
2023-02-09T04:51:07.247Z,102807.59
2023-02-09T04:53:09.615Z,102806.94
2023-02-09T04:55:11.664Z,102793.50
2023-02-09T04:57:16.792Z,102785.41
2023-02-09T04:59:21.819Z,102778.94
2023-02-09T05:01:24.867Z,102780.28
2023-02-09T05:03:28.022Z,102796.03
2023-02-09T05:05:30.494Z,102795.81
2023-02-09T05:07:32.478Z,102799.56
2023-02-09T05:09:34.405Z,102804.66
2023-02-09T05:11:36.290Z,102808.69
2023-02-09T05:13:38.430Z,102812.94
2023-02-09T05:15:40.524Z,102810.53
2023-02-09T05:17:42.518Z,102812.19
2023-02-09T05:19:44.483Z,102815.22
2023-02-09T05:21:46.510Z,102820.59
2023-02-09T05:23:48.457Z,102819.75
2023-02-09T05:25:50.495Z,102822.97
2023-02-09T05:27:52.631Z,102814.47
2023-02-09T05:29:54.584Z,102818.59
2023-02-09T05:31:56.698Z,102821.88
2023-02-09T05:33:58.815Z,102822.19
2023-02-09T05:36:00.858Z,102819.97
2023-02-09T05:38:02.918Z,102825.16
2023-02-09T05:40:05.763Z,102828.66
2023-02-09T05:42:10.840Z,102820.75
2023-02-09T05:44:12.803Z,102826.53
2023-02-09T05:46:14.895Z,102841.13
2023-02-09T05:48:17.064Z,102839.13
2023-02-09T05:50:19.289Z,102843.50
2023-02-09T05:52:21.268Z,102833.50
2023-02-09T05:54:23.247Z,102842.94
2023-02-09T05:56:25.345Z,102845.16
2023-02-09T05:58:27.443Z,102841.34
2023-02-09T06:00:30.099Z,102839.00
2023-02-09T06:02:32.293Z,102834.22
2023-02-09T06:04:34.565Z,102837.75
2023-02-09T06:06:36.924Z,102836.00
2023-02-09T06:08:39.475Z,102855.41
2023-02-09T06:10:41.495Z,102850.69
2023-02-09T06:12:43.629Z,102841.34
2023-02-09T06:14:45.755Z,102842.88
2023-02-09T06:16:48.368Z,102844.00
2023-02-09T06:18:50.269Z,102848.22
2023-02-09T06:20:53.978Z,102849.53
2023-02-09T06:22:57.261Z,102856.41
2023-02-09T06:24:59.250Z,102856.66
2023-02-09T06:27:01.351Z,102866.72
2023-02-09T06:29:04.040Z,102868.41
2023-02-09T06:31:07.180Z,102874.41
2023-02-09T06:33:09.174Z,102881.50
2023-02-09T06:35:11.113Z,102882.31
2023-02-09T06:37:13.135Z,102885.75
2023-02-09T06:39:15.188Z,102881.84
2023-02-09T06:41:17.191Z,102886.94
2023-02-09T06:43:19.127Z,102889.84
2023-02-09T06:45:21.137Z,102893.53
2023-02-09T06:47:23.077Z,102900.66
2023-02-09T06:49:26.886Z,102899.16
2023-02-09T06:51:29.210Z,102901.13
2023-02-09T06:53:31.312Z,102905.59
2023-02-09T06:55:33.974Z,102911.34
2023-02-09T06:57:36.113Z,102906.25
2023-02-09T06:59:40.009Z,102902.69
2023-02-09T07:01:42.097Z,102905.47
2023-02-09T07:03:44.586Z,102904.16
2023-02-09T07:05:46.549Z,102909.81
2023-02-09T07:07:48.581Z,102906.25
2023-02-09T07:09:50.511Z,102905.47
2023-02-09T07:11:52.569Z,102911.34
2023-02-09T07:13:54.679Z,102909.69
2023-02-09T07:15:57.831Z,102918.03
2023-02-09T07:17:59.968Z,102920.22
2023-02-09T07:20:02.092Z,102915.53
2023-02-09T07:22:04.448Z,102910.66
2023-02-09T07:24:07.312Z,102915.75
2023-02-09T07:26:13.695Z,102918.09
2023-02-09T07:28:17.225Z,102916.13
2023-02-09T07:30:19.499Z,102915.47
2023-02-09T07:32:24.011Z,102913.59
2023-02-09T07:34:26.272Z,102917.25
2023-02-09T07:36:28.530Z,102923.94
2023-02-09T07:38:43.585Z,102924.59
2023-02-09T07:40:47.007Z,102928.28
2023-02-09T07:42:51.877Z,102921.38
2023-02-09T07:44:53.951Z,102924.13
2023-02-09T07:46:55.988Z,102921.66
2023-02-09T07:49:01.084Z,102928.47
2023-02-09T07:51:04.072Z,102925.91
2023-02-09T07:53:06.201Z,102915.13
2023-02-09T07:55:08.711Z,102921.28
2023-02-09T07:57:13.028Z,102925.81
2023-02-09T07:59:15.295Z,102922.16
2023-02-09T08:01:18.436Z,102931.31
2023-02-09T08:03:23.434Z,102933.97
2023-02-09T08:05:32.211Z,102940.50
2023-02-09T08:07:34.686Z,102933.88
2023-02-09T08:09:36.970Z,102937.31
2023-02-09T08:11:46.023Z,102949.22
2023-02-09T08:13:49.973Z,102956.00
2023-02-09T08:15:57.098Z,102963.34
2023-02-09T08:18:03.021Z,102966.94
2023-02-09T08:20:10.907Z,102967.66
2023-02-09T08:22:13.165Z,102970.78
2023-02-09T08:24:19.072Z,102979.66
2023-02-09T08:26:21.808Z,102979.22
2023-02-09T08:28:38.175Z,102986.00
2023-02-09T08:30:40.933Z,102983.13
2023-02-09T08:32:43.751Z,102984.34
2023-02-09T08:34:46.228Z,102991.78
2023-02-09T08:36:48.440Z,102991.34
2023-02-09T08:38:51.026Z,102997.59
2023-02-09T08:40:53.301Z,102995.78
2023-02-09T08:42:55.731Z,103001.47
2023-02-09T08:44:58.385Z,102996.34
2023-02-09T08:47:00.717Z,102999.03
2023-02-09T08:49:03.250Z,103009.25
2023-02-09T08:51:06.851Z,103008.84
2023-02-09T08:53:09.173Z,103011.09
2023-02-09T08:55:12.132Z,103007.41
2023-02-09T08:57:14.629Z,103012.63
2023-02-09T08:59:19.757Z,103016.53
2023-02-09T09:01:22.774Z,103015.97
2023-02-09T09:03:29.067Z,103024.66
2023-02-09T09:05:32.213Z,103016.66
2023-02-09T09:07:34.941Z,103020.25
2023-02-09T09:09:37.461Z,103018.78
2023-02-09T09:11:39.803Z,103024.00
2023-02-09T09:13:43.717Z,103026.88
2023-02-09T09:15:46.684Z,103026.88
2023-02-09T09:17:49.716Z,103028.91
2023-02-09T09:19:56.054Z,103030.03
2023-02-09T09:22:00.870Z,103034.47
2023-02-09T09:24:03.170Z,103039.03
2023-02-09T09:26:05.622Z,103042.28
2023-02-09T09:28:09.212Z,103039.16
2023-02-09T09:30:12.935Z,103038.69
2023-02-09T09:32:15.409Z,103038.81
2023-02-09T09:34:17.737Z,103038.47
2023-02-09T09:36:21.094Z,103045.38
2023-02-09T09:38:23.343Z,103043.84
2023-02-09T09:40:29.263Z,103048.38
2023-02-09T09:42:36.501Z,103045.16
2023-02-09T09:44:47.123Z,103046.31
2023-02-09T09:46:53.554Z,103045.94
2023-02-09T09:48:58.216Z,103050.19
2023-02-09T09:51:09.713Z,103049.75
2023-02-09T09:53:17.435Z,103056.94
2023-02-09T09:55:24.958Z,103058.50
2023-02-09T09:57:30.575Z,103053.50
2023-02-09T09:59:39.328Z,103044.75
2023-02-09T10:01:41.739Z,103052.75
2023-02-09T10:03:45.085Z,103060.78
2023-02-09T10:05:52.223Z,103053.16
2023-02-09T10:08:01.949Z,103058.09
2023-02-09T10:10:14.288Z,103054.75
2023-02-09T10:12:23.320Z,103061.31
2023-02-09T10:14:25.806Z,103056.38
2023-02-09T10:16:34.871Z,103055.28
2023-02-09T10:18:38.441Z,103051.31
2023-02-09T10:20:47.216Z,103062.19
2023-02-09T10:22:52.273Z,103066.44
2023-02-09T10:24:54.716Z,103074.72
2023-02-09T10:27:03.177Z,103079.31
2023-02-09T10:29:11.806Z,103084.09
2023-02-09T10:31:17.801Z,103081.97
2023-02-09T10:33:20.443Z,103079.22
2023-02-09T10:35:28.541Z,103088.19
2023-02-09T10:37:34.552Z,103078.94
2023-02-09T10:39:37.169Z,103074.00
2023-02-09T10:41:42.526Z,103072.63
2023-02-09T10:43:52.846Z,103068.53
2023-02-09T10:45:58.106Z,103085.22
2023-02-09T10:48:15.909Z,103094.22
2023-02-09T10:50:18.897Z,103090.94
2023-02-09T10:52:24.273Z,103091.63
2023-02-09T10:54:28.107Z,103093.25
2023-02-09T10:56:36.284Z,103091.66
2023-02-09T10:58:38.944Z,103089.53
2023-02-09T11:00:51.008Z,103088.94
2023-02-09T11:02:58.128Z,103089.25
2023-02-09T11:05:00.528Z,103087.97
2023-02-09T11:07:09.656Z,103083.28
2023-02-09T11:09:17.609Z,103094.53
2023-02-09T11:11:29.249Z,103088.91
2023-02-09T11:13:34.975Z,103093.56
2023-02-09T11:15:48.280Z,103084.19
2023-02-09T11:17:56.715Z,103086.19
2023-02-09T11:20:10.872Z,103090.03
2023-02-09T11:22:15.296Z,103085.75
2023-02-09T11:24:21.965Z,103083.88
2023-02-09T11:26:30.303Z,103076.25
2023-02-09T11:28:35.977Z,103078.81
2023-02-09T11:30:45.254Z,103084.13
2023-02-09T11:32:55.718Z,103071.38
2023-02-09T11:35:01.123Z,103070.97
2023-02-09T11:37:09.007Z,103062.06
2023-02-09T11:39:14.611Z,103059.56
2023-02-09T11:41:30.152Z,103043.91
2023-02-09T11:43:39.739Z,103047.75
2023-02-09T11:45:48.432Z,103053.81
2023-02-09T11:47:54.296Z,103049.78
2023-02-09T11:49:59.468Z,103040.03
2023-02-09T11:52:04.441Z,103045.03
2023-02-09T11:54:12.920Z,103041.50
2023-02-09T11:56:17.845Z,103046.00
2023-02-09T11:58:26.378Z,103051.53
2023-02-09T12:00:53.459Z,103058.34
2023-02-09T12:03:10.907Z,103056.44
2023-02-09T12:05:17.794Z,103052.38
2023-02-09T12:07:25.426Z,103052.91
2023-02-09T12:09:32.228Z,103048.88
2023-02-09T12:11:45.567Z,103050.38
2023-02-09T12:14:00.742Z,103047.06
2023-02-09T12:16:12.746Z,103047.22
2023-02-09T12:18:22.007Z,103049.50
2023-02-09T12:20:26.303Z,103054.06
2023-02-09T12:22:34.634Z,103052.50
2023-02-09T12:24:40.937Z,103046.78
2023-02-09T12:26:44.862Z,103046.16
2023-02-09T12:28:48.613Z,103048.41
2023-02-09T12:30:51.677Z,103053.09
2023-02-09T12:33:14.457Z,103046.47
2023-02-09T12:35:27.901Z,103046.97
2023-02-09T12:37:30.377Z,103047.38
2023-02-09T12:39:34.311Z,103038.44
2023-02-09T12:41:41.317Z,103043.94
2023-02-09T12:43:45.800Z,103037.59
2023-02-09T12:46:11.317Z,103034.59
2023-02-09T12:48:19.598Z,103036.06
2023-02-09T12:50:32.134Z,103041.94
2023-02-09T12:52:34.784Z,103037.81
2023-02-09T12:54:41.665Z,103045.66
2023-02-09T12:56:44.136Z,103046.69
2023-02-09T12:58:47.242Z,103050.72
2023-02-09T13:00:54.955Z,103053.81
2023-02-09T13:03:08.017Z,103053.31
2023-02-09T13:05:16.094Z,103045.66
2023-02-09T13:07:29.615Z,103043.97
2023-02-09T13:09:38.789Z,103047.84
2023-02-09T13:11:48.468Z,103042.69
2023-02-09T13:13:57.031Z,103039.78
2023-02-09T13:16:04.084Z,103045.06
2023-02-09T13:18:20.387Z,103042.84
2023-02-09T13:20:29.738Z,103042.09
2023-02-09T13:22:40.232Z,103040.16
2023-02-09T13:24:52.781Z,103033.69
2023-02-09T13:26:57.492Z,103035.44
2023-02-09T13:29:19.355Z,103041.31
2023-02-09T13:31:30.338Z,103037.25
2023-02-09T13:33:41.237Z,103035.63
2023-02-09T13:35:55.019Z,103038.22
2023-02-09T13:38:00.160Z,103028.63
2023-02-09T13:40:14.218Z,103025.97
2023-02-09T13:42:21.390Z,103023.59
2023-02-09T13:44:28.072Z,103023.31
2023-02-09T13:46:35.565Z,103024.34
2023-02-09T13:48:39.260Z,103028.19
2023-02-09T13:50:48.714Z,103026.88
2023-02-09T13:52:51.290Z,103035.72
2023-02-09T13:54:54.859Z,103042.84
2023-02-09T13:56:57.574Z,103046.75
2023-02-09T13:59:01.174Z,103048.16
2023-02-09T14:01:05.680Z,103036.19
2023-02-09T14:03:16.710Z,103042.38
2023-02-09T14:05:25.886Z,103049.63
2023-02-09T14:07:33.641Z,103046.66
2023-02-09T14:09:46.618Z,103045.50
2023-02-09T14:11:55.771Z,103042.06
2023-02-09T14:14:03.171Z,103047.38
2023-02-09T14:16:07.757Z,103051.94
2023-02-09T14:18:16.211Z,103064.19
2023-02-09T14:20:22.694Z,103067.25
2023-02-09T14:22:28.375Z,103064.22
2023-02-09T14:24:43.993Z,103063.78
2023-02-09T14:26:52.091Z,103068.50
2023-02-09T14:29:00.534Z,103070.97
2023-02-09T14:31:02.893Z,103063.22
2023-02-09T14:33:05.340Z,103070.03
2023-02-09T14:35:18.299Z,103067.69
2023-02-09T14:37:21.134Z,103076.28
2023-02-09T14:39:23.574Z,103071.78
2023-02-09T14:41:30.918Z,103072.72
2023-02-09T14:43:33.165Z,103067.69
2023-02-09T14:45:40.092Z,103066.28
2023-02-09T14:47:45.104Z,103073.31
2023-02-09T14:49:47.662Z,103077.94
2023-02-09T14:51:54.131Z,103076.59
2023-02-09T14:53:56.569Z,103083.97
2023-02-09T14:55:59.346Z,103073.75
2023-02-09T14:58:01.423Z,103070.75
2023-02-09T15:00:10.105Z,103076.00
2023-02-09T15:02:19.495Z,103077.69
2023-02-09T15:04:22.052Z,103073.47
2023-02-09T15:06:27.093Z,103068.22
2023-02-09T15:08:34.509Z,103063.81
2023-02-09T15:10:43.076Z,103061.28
2023-02-09T15:12:45.604Z,103072.38
2023-02-09T15:14:48.214Z,103071.28
2023-02-09T15:16:51.229Z,103071.28
2023-02-09T15:18:53.572Z,103064.56
2023-02-09T15:20:56.289Z,103074.03
2023-02-09T15:23:00.941Z,103076.53
2023-02-09T15:25:03.198Z,103074.75
2023-02-09T15:27:05.556Z,103084.84
2023-02-09T15:29:14.033Z,103085.03
2023-02-09T15:31:16.672Z,103082.47
2023-02-09T15:33:18.939Z,103085.56
2023-02-09T15:35:24.151Z,103088.31
2023-02-09T15:37:32.213Z,103090.19
2023-02-09T15:39:34.682Z,103097.41
2023-02-09T15:41:40.110Z,103095.25
2023-02-09T15:43:45.823Z,103104.91
2023-02-09T15:45:51.502Z,103096.22
2023-02-09T15:47:56.780Z,103094.69
2023-02-09T15:49:59.573Z,103098.44
2023-02-09T15:52:02.211Z,103104.25
2023-02-09T15:54:09.016Z,103095.91
2023-02-09T15:56:14.472Z,103099.75
2023-02-09T15:58:20.767Z,103099.75
2023-02-09T16:00:27.509Z,103108.06
2023-02-09T16:02:30.161Z,103113.78
2023-02-09T16:04:33.036Z,103128.16
2023-02-09T16:06:36.184Z,103121.47
2023-02-09T16:08:39.100Z,103124.22
2023-02-09T16:10:41.737Z,103118.34
2023-02-09T16:12:44.234Z,103117.19
2023-02-09T16:14:46.816Z,103119.25
2023-02-09T16:16:50.067Z,103129.41
2023-02-09T16:18:52.641Z,103128.34
2023-02-09T16:20:55.248Z,103132.44
2023-02-09T16:23:00.918Z,103133.75
2023-02-09T16:25:07.516Z,103139.88
2023-02-09T16:27:16.985Z,103139.59
2023-02-09T16:29:20.627Z,103147.25
2023-02-09T16:31:24.104Z,103149.69
2023-02-09T16:33:27.189Z,103154.41
2023-02-09T16:35:31.430Z,103158.69
2023-02-09T16:37:33.852Z,103153.44
2023-02-09T16:39:36.219Z,103162.78
2023-02-09T16:41:41.573Z,103159.25
2023-02-09T16:46:02.237Z,103169.13
2023-02-09T16:48:06.363Z,103172.41
2023-02-09T16:50:14.993Z,103172.22
2023-02-09T16:52:20.852Z,103174.47
2023-02-09T16:54:23.640Z,103176.97
2023-02-09T16:56:27.788Z,103175.00
2023-02-09T16:58:30.241Z,103191.91
2023-02-09T17:00:36.480Z,103194.09
2023-02-09T17:02:44.694Z,103187.19
2023-02-09T17:04:47.309Z,103196.44
2023-02-09T17:06:52.984Z,103211.34
2023-02-09T17:08:57.048Z,103211.06
2023-02-09T17:11:02.520Z,103220.41
2023-02-09T17:13:06.001Z,103221.19
2023-02-09T17:15:28.473Z,103227.06
2023-02-09T17:17:31.650Z,103225.09
2023-02-09T17:19:46.930Z,103227.41
2023-02-09T17:21:50.333Z,103222.00
2023-02-09T17:23:54.028Z,103226.94
2023-02-09T17:25:56.770Z,103227.66
2023-02-09T17:27:59.293Z,103227.25
2023-02-09T17:30:01.894Z,103234.22
2023-02-09T17:32:06.093Z,103224.50
2023-02-09T17:34:10.508Z,103234.56
2023-02-09T17:36:26.518Z,103233.25
2023-02-09T17:38:36.427Z,103228.97
2023-02-09T17:40:38.840Z,103219.22
2023-02-09T17:42:41.941Z,103213.06
2023-02-09T17:44:46.641Z,103222.38
2023-02-09T17:46:50.187Z,103223.78
2023-02-09T17:48:52.666Z,103232.31
2023-02-09T17:50:58.191Z,103244.19
2023-02-09T17:53:01.576Z,103244.19
2023-02-09T17:55:04.445Z,103263.69
2023-02-09T17:57:07.240Z,103261.66
2023-02-09T17:59:10.345Z,103270.94
2023-02-09T18:01:26.406Z,103280.16
2023-02-09T18:03:29.600Z,103275.72
2023-02-09T18:05:39.233Z,103285.78
2023-02-09T18:07:41.878Z,103292.81
2023-02-09T18:09:44.373Z,103293.41
2023-02-09T18:11:53.069Z,103285.13
2023-02-09T18:13:55.554Z,103286.47
2023-02-09T18:15:58.042Z,103286.13
2023-02-09T18:18:00.507Z,103294.50
2023-02-09T18:20:03.481Z,103302.03
2023-02-09T18:22:06.398Z,103300.25
2023-02-09T18:24:10.189Z,103297.50
2023-02-09T18:26:12.437Z,103301.25
2023-02-09T18:28:15.780Z,103303.13
2023-02-09T18:30:21.134Z,103295.22
2023-02-09T18:32:24.614Z,103298.47
2023-02-09T18:34:27.165Z,103301.63
2023-02-09T18:36:29.713Z,103301.53
2023-02-09T18:38:31.900Z,103297.09
2023-02-09T18:40:35.217Z,103299.56
2023-02-09T18:42:37.540Z,103304.72
2023-02-09T18:44:40.019Z,103306.16
2023-02-09T18:46:43.732Z,103311.22
2023-02-09T18:48:47.225Z,103314.56
2023-02-09T18:50:49.793Z,103319.44
2023-02-09T18:52:56.531Z,103319.34
2023-02-09T18:54:59.165Z,103321.91
2023-02-09T18:57:01.714Z,103321.69
2023-02-09T18:59:04.294Z,103325.41
2023-02-09T19:01:11.958Z,103322.25
2023-02-09T19:03:17.244Z,103324.69
2023-02-09T19:05:19.790Z,103326.38
2023-02-09T19:07:22.671Z,103328.84
2023-02-09T19:09:24.996Z,103330.75
2023-02-09T19:11:27.269Z,103328.84
2023-02-09T19:13:32.662Z,103330.63
2023-02-09T19:15:36.382Z,103334.00
2023-02-09T19:17:40.921Z,103336.66
2023-02-09T19:19:45.012Z,103338.25
2023-02-09T19:21:52.459Z,103333.78
2023-02-09T19:23:55.188Z,103332.00
2023-02-09T19:26:03.258Z,103335.38
2023-02-09T19:28:06.252Z,103337.84
2023-02-09T19:30:09.571Z,103349.91
2023-02-09T19:32:14.644Z,103344.53
2023-02-09T19:34:16.749Z,103348.78
2023-02-09T19:36:18.737Z,103350.16
2023-02-09T19:38:21.284Z,103361.13
2023-02-09T19:40:28.606Z,103359.44
2023-02-09T19:42:32.269Z,103360.44
2023-02-09T19:44:35.561Z,103366.66
2023-02-09T19:46:37.981Z,103362.66
2023-02-09T19:48:40.597Z,103367.88
2023-02-09T19:50:42.940Z,103372.53
2023-02-09T19:52:47.711Z,103369.88
2023-02-09T19:54:50.845Z,103378.16
2023-02-09T19:56:53.316Z,103381.53
2023-02-09T19:58:55.786Z,103383.47
2023-02-09T20:00:58.344Z,103392.34
2023-02-09T20:03:00.793Z,103389.69
2023-02-09T20:05:02.890Z,103397.50
2023-02-09T20:07:04.924Z,103392.16
2023-02-09T20:09:07.168Z,103393.84
2023-02-09T20:11:11.701Z,103397.09
2023-02-09T20:13:14.333Z,103398.78
2023-02-09T20:15:16.730Z,103403.03
2023-02-09T20:19:22.316Z,103406.25
2023-02-09T20:21:24.842Z,103402.38
2023-02-09T20:23:27.221Z,103408.75
2023-02-09T20:25:30.341Z,103400.94
2023-02-09T20:27:33.063Z,103401.63
2023-02-09T20:29:35.837Z,103400.56
2023-02-09T20:31:40.034Z,103408.56
2023-02-09T20:33:42.060Z,103408.06
2023-02-09T20:35:45.860Z,103411.34
2023-02-09T20:37:47.967Z,103413.69
2023-02-09T20:39:49.973Z,103415.03
2023-02-09T20:42:00.173Z,103410.56
2023-02-09T20:44:05.432Z,103412.56
2023-02-09T20:46:11.374Z,103413.16
2023-02-09T20:48:14.035Z,103409.47
2023-02-09T20:50:18.005Z,103412.16
2023-02-09T20:52:20.079Z,103416.25
2023-02-09T20:54:22.188Z,103414.47
2023-02-09T20:56:24.368Z,103422.31
2023-02-09T20:58:26.402Z,103423.97
2023-02-09T21:00:29.184Z,103427.09
2023-02-09T21:02:31.305Z,103419.09
2023-02-09T21:04:33.367Z,103425.13
2023-02-09T21:06:37.878Z,103420.88
2023-02-09T21:08:39.900Z,103420.88
2023-02-09T21:10:41.965Z,103414.84
2023-02-09T21:12:43.973Z,103414.84
2023-02-09T21:14:47.721Z,103418.06
2023-02-09T21:16:55.432Z,103420.41
2023-02-09T21:18:57.916Z,103421.31
2023-02-09T21:21:01.107Z,103423.97
2023-02-09T21:23:03.216Z,103427.31
2023-02-09T21:25:05.394Z,103434.94
2023-02-09T21:27:08.171Z,103440.06
2023-02-09T21:29:10.631Z,103439.16
2023-02-09T21:31:17.473Z,103438.28
2023-02-09T21:33:19.518Z,103438.97
2023-02-09T21:35:21.661Z,103443.97
2023-02-09T21:37:23.615Z,103443.09
2023-02-09T21:39:25.608Z,103445.66
2023-02-09T21:41:31.102Z,103448.09
2023-02-09T21:43:33.542Z,103443.75
2023-02-09T21:45:38.758Z,103442.97
2023-02-09T21:47:40.826Z,103441.06
2023-02-09T21:49:43.403Z,103438.06
2023-02-09T21:51:45.948Z,103443.75
2023-02-09T21:53:48.792Z,103442.84
2023-02-09T21:55:50.895Z,103441.84
2023-02-09T21:57:53.179Z,103440.84
2023-02-09T21:59:55.482Z,103439.84
2023-02-09T22:01:57.862Z,103442.31
2023-02-09T22:04:00.426Z,103440.41
2023-02-09T22:06:02.665Z,103444.31
2023-02-09T22:08:04.848Z,103447.19
2023-02-09T22:10:07.692Z,103450.78
2023-02-09T22:12:09.869Z,103443.97
2023-02-09T22:14:11.992Z,103438.84
2023-02-09T22:16:19.571Z,103437.16
2023-02-09T22:18:21.585Z,103440.41
2023-02-09T22:20:23.581Z,103434.38
2023-02-09T22:22:25.577Z,103439.06
2023-02-09T22:24:27.566Z,103441.28
2023-02-09T22:26:29.680Z,103444.94
2023-02-09T22:28:34.499Z,103438.81
2023-02-09T22:30:38.313Z,103444.50
2023-02-09T22:32:40.406Z,103443.16
2023-02-09T22:34:42.405Z,103433.78
2023-02-09T22:36:44.321Z,103430.63
2023-02-09T22:38:46.596Z,103432.19
2023-02-09T22:40:48.590Z,103431.09
2023-02-09T22:42:50.675Z,103430.72
2023-02-09T22:44:52.645Z,103436.66
2023-02-09T22:46:54.568Z,103432.69
2023-02-09T22:48:59.268Z,103428.84
2023-02-09T22:51:01.238Z,103434.06
2023-02-09T22:53:03.190Z,103439.63
2023-02-09T22:55:05.644Z,103439.53
2023-02-09T22:57:07.557Z,103440.50
2023-02-09T22:59:12.603Z,103433.50
2023-02-09T23:01:15.460Z,103440.25
2023-02-09T23:03:17.507Z,103441.28
2023-02-09T23:05:19.424Z,103437.00
2023-02-09T23:07:21.344Z,103440.75
2023-02-09T23:09:24.218Z,103445.88
2023-02-09T23:11:27.197Z,103445.78
2023-02-09T23:13:31.117Z,103438.16
2023-02-09T23:15:33.656Z,103441.38
2023-02-09T23:17:35.902Z,103447.97
2023-02-09T23:19:37.840Z,103445.28
2023-02-09T23:21:43.227Z,103449.13
2023-02-09T23:23:45.518Z,103450.53
2023-02-09T23:25:52.055Z,103453.47
2023-02-09T23:27:54.064Z,103460.16
2023-02-09T23:29:56.034Z,103457.25
2023-02-09T23:31:58.759Z,103451.78
2023-02-09T23:34:00.841Z,103450.91
2023-02-09T23:36:05.254Z,103447.00
2023-02-09T23:38:07.290Z,103456.47
2023-02-09T23:40:10.289Z,103451.72
2023-02-09T23:42:12.353Z,103454.19
2023-02-09T23:44:14.540Z,103465.38
2023-02-09T23:46:19.323Z,103465.66